Terminal Aerodrome Forecast
Issued by NWS

Home | Current Version | Previous Version | Text Only | Print | Product List | Glossary On
Versions: 1 2 3 4 5 6 7 8 9 10 11 12 13 14 15 16 17 18
000
FTUS41 KCAR 271121
TAFFVE
TAF
KFVE 271121Z 2712/2812 31007KT P6SM FEW110 SCT220
     FM271500 28012G20KT P6SM SCT045
     FM280200 26006KT P6SM FEW110 SCT220=

USA.gov is the U.S. government's official web portal to all federal, state and local government web resources and services.